Time;durP1;ratioP1;P1;durP2;ratioP2;P2;SDS_P1;SDS_P2;PMS_P1;PMS_P2;Temp;Humidity;BMP_temperature;BMP_pressure;BME280_temperature;BME280_humidity;BME280_pressure;Samples;Min_cycle;Max_cycle;Signal;HPM_P1;HPM_P2
2022/04/02 00:01:27;;;;;;;1.57;0.40;;;21.10;99.90;;;;;;5074746;28;20564;-69
2022/04/02 00:03:55;;;;;;;3.90;0.80;;;21.00;99.90;;;;;;5074618;28;20163;-69
2022/04/02 00:06:22;;;;;;;2.27;0.80;;;20.90;99.90;;;;;;5073175;28;20188;-69
2022/04/02 00:08:50;;;;;;;1.30;0.57;;;21.00;99.90;;;;;;5074513;28;20218;-69
2022/04/02 00:11:18;;;;;;;3.63;0.70;;;20.90;99.90;;;;;;5075155;28;20229;-68
2022/04/02 00:13:45;;;;;;;1.70;0.53;;;21.00;99.90;;;;;;5075637;28;20211;-69
2022/04/02 00:16:13;;;;;;;1.33;0.40;;;20.90;99.90;;;;;;5074316;28;20184;-68
2022/04/02 00:18:42;;;;;;;1.37;0.67;;;21.10;99.90;;;;;;5074347;28;20172;-69
2022/04/02 00:21:10;;;;;;;1.17;0.40;;;21.20;99.90;;;;;;5074866;28;20302;-68
2022/04/02 00:23:43;;;;;;;2.47;0.50;;;20.70;99.90;;;;;;5076240;28;20173;-68
2022/04/02 00:26:20;;;;;;;1.23;0.40;;;20.50;99.90;;;;;;5074399;28;20176;-70
2022/04/02 00:28:52;;;;;;;1.70;0.70;;;20.70;99.90;;;;;;5073319;28;20182;-68
2022/04/02 00:31:21;;;;;;;2.77;0.50;;;20.80;99.90;;;;;;5074095;28;20263;-69
2022/04/02 00:33:50;;;;;;;2.00;0.57;;;20.70;99.90;;;;;;5074318;28;20172;-68
2022/04/02 00:36:22;;;;;;;1.73;0.40;;;21.30;99.90;;;;;;5072755;28;20186;-69
2022/04/02 00:38:50;;;;;;;0.70;0.40;;;21.20;99.90;;;;;;5074139;28;20177;-69
2022/04/02 00:41:18;;;;;;;0.77;0.43;;;21.30;99.90;;;;;;5074589;28;20815;-69
2022/04/02 00:43:58;;;;;;;0.50;0.27;;;21.70;99.90;;;;;;5074986;28;20216;-69
2022/04/02 00:46:26;;;;;;;0.93;0.40;;;21.80;99.90;;;;;;5074689;28;20348;-68
2022/04/02 00:48:54;;;;;;;0.47;0.40;;;21.90;99.90;;;;;;5074857;28;20661;-70
2022/04/02 00:51:22;;;;;;;0.40;0.40;;;21.40;99.90;;;;;;5074514;28;20266;-69
2022/04/02 00:53:51;;;;;;;0.70;0.40;;;20.90;99.90;;;;;;5073005;28;20195;-69
2022/04/02 00:56:20;;;;;;;1.23;0.40;;;20.90;99.90;;;;;;5074525;28;20606;-70
2022/04/02 00:58:48;;;;;;;0.73;0.40;;;21.60;99.90;;;;;;5073993;28;20213;-68
2022/04/02 01:01:16;;;;;;;0.80;0.40;;;22.10;99.90;;;;;;5074296;28;20219;-69
2022/04/02 01:03:44;;;;;;;0.57;0.40;;;22.70;99.90;;;;;;5075114;28;20175;-70
2022/04/02 01:06:13;;;;;;;0.83;0.30;;;22.90;99.90;;;;;;5081127;28;20184;-68
2022/04/02 01:08:41;;;;;;;0.50;0.30;;;22.60;99.90;;;;;;5082801;28;20258;-69
2022/04/02 01:11:08;;;;;;;2.23;0.50;;;22.30;99.90;;;;;;5080061;28;20183;-68
2022/04/02 01:13:36;;;;;;;0.40;0.37;;;22.10;99.90;;;;;;5080089;28;20739;-68
2022/04/02 01:16:04;;;;;;;0.50;0.30;;;21.50;99.90;;;;;;5080318;28;20274;-69
2022/04/02 01:18:32;;;;;;;1.47;0.50;;;21.60;99.90;;;;;;5078610;28;20267;-69
2022/04/02 01:21:00;;;;;;;0.83;0.30;;;21.50;99.90;;;;;;5075922;28;20219;-69
2022/04/02 01:23:30;;;;;;;1.00;0.60;;;21.60;99.90;;;;;;5073943;28;20621;-69
2022/04/02 01:26:00;;;;;;;1.07;0.40;;;21.80;99.90;;;;;;5073655;28;20187;-69
2022/04/02 01:28:34;;;;;;;5.43;0.43;;;21.90;99.90;;;;;;5073359;28;20646;-69
2022/04/02 01:31:07;;;;;;;0.30;0.30;;;21.90;99.90;;;;;;5073466;28;20214;-69
2022/04/02 01:33:38;;;;;;;0.70;0.30;;;22.10;99.90;;;;;;5073405;28;20183;-69
2022/04/02 01:36:06;;;;;;;0.47;0.30;;;22.00;99.90;;;;;;5073188;28;20236;-69
2022/04/02 01:38:34;;;;;;;0.20;0.20;;;21.90;99.90;;;;;;5072862;28;20230;-69
2022/04/02 01:41:02;;;;;;;1.57;0.30;;;21.90;99.90;;;;;;5073234;28;20287;-69
2022/04/02 01:43:30;;;;;;;0.57;0.30;;;22.30;99.90;;;;;;5073036;28;20295;-69
2022/04/02 01:45:58;;;;;;;3.20;0.40;;;22.50;99.90;;;;;;5073050;28;20175;-69
2022/04/02 01:48:27;;;;;;;0.50;0.20;;;23.00;99.90;;;;;;5072983;28;20260;-69
2022/04/02 01:50:55;;;;;;;1.27;0.30;;;23.10;99.90;;;;;;5072782;28;20175;-69
2022/04/02 01:53:24;;;;;;;0.77;0.40;;;23.60;99.90;;;;;;5073328;28;20671;-69
2022/04/02 01:55:52;;;;;;;0.30;0.30;;;22.80;99.90;;;;;;5072693;28;20187;-69
2022/04/02 01:58:20;;;;;;;1.33;0.20;;;22.60;99.90;;;;;;5072458;28;20195;-69
2022/04/02 02:00:48;;;;;;;0.60;0.30;;;22.50;99.90;;;;;;5072677;28;20207;-69
2022/04/02 02:03:17;;;;;;;0.30;0.30;;;22.30;99.90;;;;;;5072659;28;20171;-69
2022/04/02 02:05:45;;;;;;;0.50;0.30;;;22.30;99.90;;;;;;5072814;28;20321;-69
2022/04/02 02:08:13;;;;;;;0.77;0.30;;;22.20;99.90;;;;;;5072795;28;20171;-70
2022/04/02 02:10:41;;;;;;;0.67;0.30;;;22.40;99.90;;;;;;5072718;28;20515;-69
2022/04/02 02:13:08;;;;;;;0.60;0.30;;;22.60;99.90;;;;;;5072391;28;20531;-69
2022/04/02 02:15:36;;;;;;;4.60;0.40;;;23.20;99.90;;;;;;5072688;28;20276;-68
2022/04/02 02:18:04;;;;;;;0.23;0.23;;;23.20;99.90;;;;;;5072541;28;20171;-69
2022/04/02 02:20:32;;;;;;;1.87;0.33;;;22.90;99.90;;;;;;5072555;28;20214;-69
2022/04/02 02:22:59;;;;;;;1.87;0.30;;;22.90;99.90;;;;;;5071122;28;20645;-69
2022/04/02 02:25:27;;;;;;;0.60;0.40;;;22.90;99.90;;;;;;5073676;28;20182;-69
2022/04/02 02:27:55;;;;;;;0.20;0.20;;;22.70;99.90;;;;;;5076201;28;20226;-69
2022/04/02 02:30:23;;;;;;;2.27;0.50;;;22.30;99.90;;;;;;5076141;28;20176;-68
2022/04/02 02:35:48;;;;;;;0.97;0.40;;;22.20;99.90;;;;;;5076058;28;20172;-69
2022/04/02 02:35:50;;;;;;;0.40;0.40;;;22.70;99.90;;;;;;5076074;28;20238;-70
2022/04/02 02:38:21;;;;;;;0.90;0.60;;;22.70;99.90;;;;;;5075878;28;20172;-68
2022/04/02 02:40:51;;;;;;;1.30;0.40;;;22.80;99.90;;;;;;5075963;28;20210;-69
2022/04/02 02:43:22;;;;;;;1.30;0.30;;;22.70;99.90;;;;;;5075836;28;20207;-69
2022/04/02 02:45:50;;;;;;;3.47;0.40;;;22.70;99.90;;;;;;5075960;28;20207;-69
2022/04/02 02:48:18;;;;;;;0.47;0.30;;;23.10;99.90;;;;;;5074469;28;20207;-69
2022/04/02 02:50:46;;;;;;;0.63;0.27;;;23.30;99.90;;;;;;5075720;28;20179;-69
2022/04/02 02:53:14;;;;;;;0.77;0.40;;;23.20;99.90;;;;;;5075775;28;20186;-69
2022/04/02 02:55:44;;;;;;;0.60;0.33;;;23.70;99.90;;;;;;5075677;28;20257;-69
2022/04/02 02:58:12;;;;;;;1.73;0.60;;;24.00;99.90;;;;;;5074297;28;20226;-69
2022/04/02 03:00:42;;;;;;;0.50;0.40;;;23.40;99.90;;;;;;5075514;28;20223;-69
2022/04/02 03:03:09;;;;;;;0.70;0.23;;;23.00;99.90;;;;;;5075524;28;20168;-69
2022/04/02 03:05:37;;;;;;;0.73;0.40;;;22.60;99.90;;;;;;5075556;28;20186;-69
2022/04/02 03:08:05;;;;;;;0.70;0.40;;;22.60;99.90;;;;;;5075530;28;20172;-69
2022/04/02 03:10:34;;;;;;;0.80;0.40;;;22.70;99.90;;;;;;5075551;28;20185;-69
2022/04/02 03:13:01;;;;;;;0.87;0.40;;;22.60;99.90;;;;;;5075523;28;20183;-69
2022/04/02 03:15:29;;;;;;;1.17;0.33;;;22.40;99.90;;;;;;5075221;28;20234;-69
2022/04/02 03:18:04;;;;;;;0.80;0.40;;;22.20;99.90;;;;;;5075199;28;20221;-69
2022/04/02 03:20:32;;;;;;;0.50;0.20;;;22.30;99.90;;;;;;5075464;28;20211;-68
2022/04/02 03:23:00;;;;;;;1.40;0.30;;;22.40;99.90;;;;;;5075227;28;20257;-69
2022/04/02 03:25:27;;;;;;;0.20;0.20;;;22.40;99.90;;;;;;5075238;28;20188;-69
2022/04/02 03:27:55;;;;;;;0.73;0.23;;;22.40;99.90;;;;;;5075118;28;20176;-69
2022/04/02 03:30:25;;;;;;;0.30;0.30;;;22.20;99.90;;;;;;5075109;28;20172;-69
2022/04/02 03:32:54;;;;;;;0.40;0.40;;;22.30;99.90;;;;;;5074963;28;20540;-69
2022/04/02 03:35:21;;;;;;;0.30;0.30;;;22.40;99.90;;;;;;5075052;28;20369;-69
2022/04/02 03:37:51;;;;;;;0.53;0.40;;;22.60;99.90;;;;;;5074589;28;20168;-68
2022/04/02 03:40:23;;;;;;;0.20;0.20;;;23.20;99.90;;;;;;5074750;28;20331;-69
2022/04/02 03:42:52;;;;;;;0.50;0.30;;;23.80;99.90;;;;;;5075067;28;20206;-69
2022/04/02 03:45:22;;;;;;;0.30;0.23;;;24.00;99.90;;;;;;5074729;28;20175;-69
2022/04/02 03:47:50;;;;;;;0.27;0.20;;;24.00;99.90;;;;;;5074859;28;20180;-69
2022/04/02 03:50:18;;;;;;;0.40;0.23;;;23.90;99.90;;;;;;5074883;28;20207;-70
2022/04/02 03:52:46;;;;;;;0.57;0.37;;;23.90;99.90;;;;;;5074531;28;20179;-70
2022/04/02 03:55:14;;;;;;;0.97;0.30;;;24.20;99.90;;;;;;5074576;28;20564;-68
2022/04/02 03:57:44;;;;;;;0.60;0.30;;;23.70;99.90;;;;;;5074325;28;20215;-69
2022/04/02 04:00:12;;;;;;;0.40;0.30;;;23.10;99.90;;;;;;5074363;28;20208;-69
2022/04/02 04:02:40;;;;;;;0.40;0.20;;;23.20;99.90;;;;;;5074430;28;20176;-70
2022/04/02 04:05:08;;;;;;;0.40;0.20;;;23.40;99.90;;;;;;5073176;28;20185;-69
2022/04/02 04:07:39;;;;;;;2.00;0.40;;;23.50;99.90;;;;;;5074274;28;20188;-69
2022/04/02 04:10:08;;;;;;;1.67;0.20;;;23.10;99.90;;;;;;5074325;28;20659;-69
2022/04/02 04:12:36;;;;;;;0.47;0.40;;;23.30;99.90;;;;;;5074283;28;20176;-68
2022/04/02 04:15:05;;;;;;;3.17;0.47;;;23.40;99.90;;;;;;5074048;28;20312;-69
2022/04/02 04:17:32;;;;;;;0.33;0.20;;;23.40;99.90;;;;;;5074142;28;20183;-69
2022/04/02 04:20:00;;;;;;;0.30;0.30;;;23.00;99.90;;;;;;5072836;28;20219;-69
2022/04/02 04:22:29;;;;;;;1.07;0.37;;;23.30;99.90;;;;;;5074072;28;20270;-69
2022/04/02 04:24:57;;;;;;;0.83;0.50;;;23.40;99.90;;;;;;5073912;28;20171;-69
2022/04/02 04:27:25;;;;;;;0.67;0.40;;;23.60;99.90;;;;;;5073901;28;20185;-69
2022/04/02 04:29:52;;;;;;;1.03;0.30;;;23.90;99.90;;;;;;5072623;28;20190;-69
2022/04/02 04:32:20;;;;;;;0.93;0.30;;;23.90;99.90;;;;;;5074055;28;20237;-70
2022/04/02 04:34:48;;;;;;;2.83;0.50;;;23.70;99.90;;;;;;5072501;28;20223;-69
2022/04/02 04:37:16;;;;;;;0.63;0.30;;;23.80;99.90;;;;;;5073815;28;20183;-70
2022/04/02 04:39:43;;;;;;;0.40;0.20;;;24.20;99.90;;;;;;5073589;28;20206;-68
2022/04/02 04:42:12;;;;;;;0.30;0.20;;;23.60;99.90;;;;;;5073864;28;20551;-70
2022/04/02 04:44:40;;;;;;;2.73;0.43;;;23.50;99.90;;;;;;5072531;28;20629;-69
2022/04/02 04:47:08;;;;;;;0.90;0.40;;;23.30;99.90;;;;;;5073366;28;20199;-68
2022/04/02 04:49:36;;;;;;;1.60;0.50;;;23.30;99.90;;;;;;5073306;28;20183;-70
2022/04/02 04:52:04;;;;;;;0.60;0.47;;;23.40;99.90;;;;;;5073662;28;20171;-69
2022/04/02 04:54:32;;;;;;;1.07;0.53;;;23.40;99.90;;;;;;5073577;28;20266;-70
2022/04/02 04:57:00;;;;;;;1.63;0.50;;;23.70;99.90;;;;;;5073784;28;20183;-69
2022/04/02 04:59:27;;;;;;;0.67;0.40;;;23.90;99.90;;;;;;5073370;28;20309;-69
2022/04/02 05:01:55;;;;;;;0.30;0.30;;;24.20;99.90;;;;;;5073403;28;20234;-69
2022/04/02 05:04:22;;;;;;;0.70;0.50;;;23.40;99.90;;;;;;5073378;28;20591;-69
2022/04/02 05:06:50;;;;;;;0.37;0.30;;;23.50;99.90;;;;;;5073518;28;20183;-68
2022/04/02 05:09:18;;;;;;;1.93;0.50;;;23.60;99.90;;;;;;5073436;28;20172;-69
2022/04/02 05:11:46;;;;;;;1.33;0.53;;;23.50;99.90;;;;;;5073402;28;20164;-69
2022/04/02 05:14:14;;;;;;;1.90;0.50;;;22.90;99.90;;;;;;5073022;28;20589;-68
2022/04/02 05:16:41;;;;;;;1.17;0.57;;;22.80;99.90;;;;;;5073313;28;20668;-69
2022/04/02 05:19:09;;;;;;;0.40;0.40;;;22.70;99.90;;;;;;5073020;28;20229;-70
2022/04/02 05:21:37;;;;;;;0.50;0.40;;;22.40;99.90;;;;;;5073275;28;20257;-69
2022/04/02 05:24:06;;;;;;;4.20;2.10;;;22.60;99.90;;;;;;5073124;28;20200;-70
2022/04/02 05:26:34;;;;;;;1.53;0.50;;;22.70;99.90;;;;;;5073343;28;20182;-70
2022/04/02 05:29:02;;;;;;;2.20;0.57;;;22.50;99.90;;;;;;5073080;28;20208;-69
2022/04/02 05:31:29;;;;;;;1.80;0.57;;;22.70;99.90;;;;;;5073437;28;20182;-69
2022/04/02 05:33:57;;;;;;;1.07;0.40;;;22.80;99.90;;;;;;5073053;28;20171;-70
2022/04/02 05:36:25;;;;;;;1.33;0.60;;;22.90;99.90;;;;;;5073251;28;20172;-69
2022/04/02 05:38:53;;;;;;;2.07;0.60;;;22.80;99.90;;;;;;5072955;28;20179;-68
2022/04/02 05:41:21;;;;;;;1.43;0.50;;;22.90;99.90;;;;;;5073004;28;20211;-69
2022/04/02 05:43:49;;;;;;;1.27;0.43;;;22.60;99.90;;;;;;5071727;28;20611;-68
2022/04/02 05:46:18;;;;;;;1.30;0.43;;;22.50;99.90;;;;;;5073059;28;20168;-69
2022/04/02 05:48:45;;;;;;;0.70;0.30;;;22.50;99.90;;;;;;5072414;28;20184;-68
2022/04/02 05:51:13;;;;;;;3.67;0.43;;;22.50;99.90;;;;;;5073058;28;20253;-69
2022/04/02 05:53:41;;;;;;;0.70;0.47;;;22.40;99.90;;;;;;5071895;28;20187;-68
2022/04/02 05:56:09;;;;;;;1.40;0.53;;;22.40;99.90;;;;;;5072766;28;20233;-69
2022/04/02 05:58:41;;;;;;;0.60;0.40;;;22.80;99.90;;;;;;5072827;28;20221;-69
2022/04/02 06:01:08;;;;;;;1.77;0.53;;;22.90;99.90;;;;;;5076856;28;20245;-70
2022/04/02 06:03:39;;;;;;;1.23;0.43;;;22.80;99.90;;;;;;5076654;28;20179;-69
2022/04/02 06:06:10;;;;;;;0.97;0.50;;;22.70;99.90;;;;;;5076866;28;20176;-69
2022/04/02 06:08:38;;;;;;;1.83;0.50;;;22.30;99.90;;;;;;5076640;28;20172;-68
2022/04/02 06:11:06;;;;;;;0.30;0.30;;;22.20;99.90;;;;;;5076543;28;20212;-69
2022/04/02 06:13:34;;;;;;;1.27;0.50;;;22.20;99.90;;;;;;5076372;28;20680;-69
2022/04/02 06:16:02;;;;;;;0.87;0.60;;;22.20;99.90;;;;;;5076463;28;20183;-69
2022/04/02 06:18:30;;;;;;;1.03;0.47;;;22.20;99.90;;;;;;5075057;28;20194;-68
2022/04/02 06:21:02;;;;;;;0.70;0.43;;;22.50;99.90;;;;;;5076365;28;20219;-69
2022/04/02 06:23:30;;;;;;;1.53;0.47;;;22.50;99.90;;;;;;5076547;28;20186;-68
2022/04/02 06:25:58;;;;;;;0.80;0.40;;;22.30;99.90;;;;;;5076395;28;20176;-69
2022/04/02 06:28:26;;;;;;;2.10;0.40;;;22.10;99.90;;;;;;5076381;28;20164;-69
2022/04/02 06:30:53;;;;;;;1.47;0.60;;;22.10;99.90;;;;;;5076203;28;20176;-69
2022/04/02 06:33:21;;;;;;;1.50;0.57;;;22.30;99.90;;;;;;5076212;28;20170;-69
2022/04/02 06:35:49;;;;;;;0.87;0.47;;;22.20;99.90;;;;;;5076127;28;20204;-68
2022/04/02 06:38:17;;;;;;;0.57;0.30;;;22.20;99.90;;;;;;5074796;28;20178;-69
2022/04/02 06:40:44;;;;;;;1.47;0.50;;;22.10;99.90;;;;;;5076318;28;20235;-69
2022/04/02 06:43:13;;;;;;;0.57;0.30;;;22.00;99.90;;;;;;5076150;28;20199;-69
2022/04/02 06:45:41;;;;;;;1.37;0.53;;;22.40;99.90;;;;;;5076146;28;20679;-69
2022/04/02 06:48:09;;;;;;;3.60;0.40;;;22.30;99.90;;;;;;5075952;28;20176;-69
2022/04/02 06:50:37;;;;;;;0.63;0.40;;;22.00;99.90;;;;;;5076213;28;20172;-69
2022/04/02 06:53:05;;;;;;;0.30;0.30;;;21.80;99.90;;;;;;5075752;28;20635;-68
2022/04/02 06:55:33;;;;;;;1.60;0.60;;;21.80;99.90;;;;;;5075797;28;20645;-69
2022/04/02 06:58:01;;;;;;;0.87;0.33;;;21.90;99.90;;;;;;5075548;28;20580;-69
2022/04/02 07:00:29;;;;;;;0.50;0.40;;;22.40;99.90;;;;;;5074307;28;20207;-69
2022/04/02 07:02:56;;;;;;;1.03;0.37;;;22.60;99.90;;;;;;5075617;28;20176;-69
2022/04/02 07:05:24;;;;;;;1.67;0.40;;;22.60;99.90;;;;;;5075731;28;20179;-69
2022/04/02 07:07:52;;;;;;;1.33;0.60;;;22.60;99.90;;;;;;5075655;28;20553;-70
2022/04/02 07:10:21;;;;;;;1.80;0.60;;;22.00;99.90;;;;;;5075329;28;20176;-69
2022/04/02 07:12:48;;;;;;;2.50;0.57;;;22.10;99.90;;;;;;5075314;28;20542;-69
2022/04/02 07:15:16;;;;;;;1.17;0.90;;;21.80;99.90;;;;;;5075335;28;20220;-69
2022/04/02 07:17:44;;;;;;;1.00;0.50;;;21.60;99.90;;;;;;5075207;28;20198;-69
2022/04/02 07:20:18;;;;;;;0.57;0.27;;;21.40;99.90;;;;;;5075229;28;20207;-70
2022/04/02 07:22:47;;;;;;;1.30;0.50;;;21.20;99.90;;;;;;5075344;28;20276;-69
2022/04/02 07:25:16;;;;;;;0.43;0.30;;;21.00;99.90;;;;;;5075270;28;20164;-69
2022/04/02 07:27:47;;;;;;;0.70;0.50;;;20.80;99.90;;;;;;5075209;28;20238;-70
2022/04/02 07:30:16;;;;;;;2.20;0.60;;;20.70;99.90;;;;;;5075194;28;20216;-69
2022/04/02 07:32:43;;;;;;;3.10;0.30;;;20.60;99.90;;;;;;5074933;28;20173;-69
2022/04/02 07:35:14;;;;;;;0.50;0.50;;;20.50;99.90;;;;;;5075139;28;20572;-70
2022/04/02 07:38:00;;;;;;;1.43;0.80;;;20.50;99.90;;;;;;5074356;28;20591;-69
2022/04/02 07:40:35;;;;;;;2.47;1.70;;;20.40;99.90;;;;;;5075077;28;20235;-70
2022/04/02 07:43:12;;;;;;;1.73;0.63;;;20.30;99.90;;;;;;5074410;28;20213;-66
2022/04/02 07:45:47;;;;;;;1.47;1.00;;;20.20;99.90;;;;;;5073445;28;20182;-67
2022/04/02 07:48:16;;;;;;;2.20;0.90;;;20.10;99.90;;;;;;5073408;28;20676;-68
2022/04/02 07:50:46;;;;;;;1.57;0.67;;;20.00;99.90;;;;;;5074502;28;20676;-67
2022/04/02 07:53:24;;;;;;;1.80;1.27;;;20.00;99.90;;;;;;5074309;28;20257;-69
2022/04/02 07:55:58;;;;;;;3.33;1.30;;;20.00;99.90;;;;;;5074661;28;20180;-68
2022/04/02 07:58:34;;;;;;;2.00;1.50;;;19.90;99.90;;;;;;5074448;28;20180;-67
2022/04/02 08:01:04;;;;;;;2.23;1.47;;;19.80;99.90;;;;;;5074022;28;20218;-68
2022/04/02 08:03:32;;;;;;;2.07;1.10;;;19.70;99.90;;;;;;5074460;28;20184;-67
2022/04/02 08:06:00;;;;;;;1.10;1.00;;;19.70;99.90;;;;;;5074619;28;20322;-68
2022/04/02 08:08:28;;;;;;;1.03;0.50;;;19.60;99.90;;;;;;5073297;28;20180;-69
2022/04/02 08:10:56;;;;;;;1.00;0.60;;;19.60;99.90;;;;;;5074550;28;20180;-68
2022/04/02 08:13:24;;;;;;;1.00;0.60;;;19.50;99.90;;;;;;5074092;28;20176;-67
2022/04/02 08:15:54;;;;;;;1.03;0.50;;;19.50;99.90;;;;;;5073922;28;20283;-68
2022/04/02 08:18:28;;;;;;;1.30;0.80;;;19.40;99.90;;;;;;5074126;28;20254;-68
2022/04/02 08:20:56;;;;;;;0.37;0.37;;;19.40;99.90;;;;;;5074036;28;20208;-67
2022/04/02 08:23:23;;;;;;;1.40;0.87;;;19.30;99.90;;;;;;5072779;28;20183;-68
2022/04/02 08:26:18;;;;;;;2.03;0.73;;;19.20;99.90;;;;;;5074285;28;20164;-68
2022/04/02 08:29:33;;;;;;;1.33;0.60;;;19.10;99.90;;;;;;5074379;28;20171;-68
2022/04/02 08:32:26;;;;;;;0.67;0.50;;;19.10;99.90;;;;;;5064852;28;20188;-69
2022/04/02 08:35:05;;;;;;;0.47;0.40;;;19.00;99.90;;;;;;5074350;28;20178;-67
2022/04/02 08:37:54;;;;;;;3.13;0.60;;;18.90;99.90;;;;;;5073963;28;20196;-68
2022/04/02 08:40:58;;;;;;;3.07;0.70;;;18.90;99.90;;;;;;5073799;28;20846;-67
2022/04/02 08:43:46;;;;;;;1.17;0.43;;;18.80;99.90;;;;;;5073684;28;20249;-68
2022/04/02 08:46:25;;;;;;;0.90;0.60;;;18.80;99.90;;;;;;5054214;28;20176;-68
2022/04/02 08:49:11;;;;;;;0.30;0.30;;;18.70;99.90;;;;;;5053996;28;20661;-67
2022/04/02 08:51:46;;;;;;;0.77;0.50;;;18.80;99.90;;;;;;5068112;28;20264;-68
2022/04/02 08:54:27;;;;;;;1.53;0.57;;;18.80;99.90;;;;;;5073524;28;20546;-66
2022/04/02 08:57:05;;;;;;;1.20;0.63;;;18.70;99.90;;;;;;5073835;28;20213;-68
2022/04/02 08:59:40;;;;;;;0.40;0.40;;;18.70;99.90;;;;;;5073416;28;20188;-68
2022/04/02 09:02:19;;;;;;;0.50;0.50;;;18.60;99.90;;;;;;5073433;28;20211;-68
2022/04/02 09:05:06;;;;;;;1.27;0.57;;;18.60;99.90;;;;;;5073497;28;20212;-68
2022/04/02 09:07:42;;;;;;;3.20;0.67;;;18.40;99.90;;;;;;5073264;28;20176;-67
2022/04/02 09:10:20;;;;;;;0.77;0.73;;;18.40;99.90;;;;;;5078233;28;20231;-68
2022/04/02 09:13:26;;;;;;;1.47;0.73;;;18.40;99.90;;;;;;5071217;28;20253;-67
2022/04/02 09:16:08;;;;;;;1.83;0.70;;;18.30;99.90;;;;;;5083215;28;20180;-67
2022/04/02 09:19:09;;;;;;;0.80;0.60;;;18.40;99.90;;;;;;5089038;28;20164;-67
2022/04/02 09:21:58;;;;;;;1.27;0.57;;;18.30;99.90;;;;;;5080674;28;20207;-68
2022/04/02 09:24:41;;;;;;;2.00;0.70;;;18.20;99.90;;;;;;5079538;28;20173;-68
2022/04/02 09:27:37;;;;;;;0.53;0.53;;;18.20;99.90;;;;;;5073462;28;20171;-68
2022/04/02 09:30:16;;;;;;;3.53;0.67;;;18.20;99.90;;;;;;5072187;28;20172;-68
2022/04/02 09:33:21;;;;;;;1.20;0.63;;;18.20;99.90;;;;;;5073304;28;20171;-67
2022/04/02 09:36:04;;;;;;;2.30;0.50;;;18.10;99.90;;;;;;5072976;28;20195;-68
2022/04/02 09:38:49;;;;;;;0.70;0.40;;;18.10;99.90;;;;;;5073513;28;20198;-68
2022/04/02 09:41:32;;;;;;;1.80;0.80;;;18.00;99.90;;;;;;5073001;28;20215;-68
2022/04/02 09:44:23;;;;;;;1.57;0.70;;;18.00;99.90;;;;;;5053359;28;20172;-67
2022/04/02 09:47:00;;;;;;;1.93;0.40;;;18.00;99.90;;;;;;5053128;28;20530;-68
2022/04/02 09:50:04;;;;;;;1.40;0.60;;;18.00;99.90;;;;;;5053252;28;20639;-68
2022/04/02 09:52:33;;;;;;;1.40;0.60;;;17.90;99.90;;;;;;5051708;28;20180;-68
2022/04/02 09:55:09;;;;;;;0.73;0.60;;;17.80;99.90;;;;;;5069495;28;20176;-67
2022/04/02 09:57:57;;;;;;;1.00;0.77;;;17.70;99.90;;;;;;5072295;28;20184;-67
2022/04/02 10:00:35;;;;;;;2.10;1.00;;;17.60;99.90;;;;;;5073076;28;20206;-67
2022/04/02 10:03:06;;;;;;;3.33;2.20;;;17.60;99.90;;;;;;5071837;28;20245;-67
2022/04/02 10:06:08;;;;;;;2.00;1.60;;;17.50;99.90;;;;;;5072346;28;20230;-67
2022/04/02 10:09:02;;;;;;;2.93;1.67;;;17.50;99.90;;;;;;5072745;28;20176;-67
2022/04/02 10:11:30;;;;;;;2.10;0.90;;;17.50;99.90;;;;;;5071049;28;20188;-66
2022/04/02 10:14:03;;;;;;;1.43;0.70;;;17.50;99.90;;;;;;5072259;28;20224;-66
2022/04/02 10:16:31;;;;;;;1.20;0.60;;;17.50;99.90;;;;;;5072860;28;20231;-66
2022/04/02 10:19:00;;;;;;;0.97;0.60;;;17.50;99.90;;;;;;5072402;28;20188;-67
2022/04/02 10:21:32;;;;;;;1.10;0.60;;;17.40;99.90;;;;;;5071540;28;20215;-67
2022/04/02 10:24:21;;;;;;;1.37;0.60;;;17.40;99.90;;;;;;5072138;28;20168;-66
2022/04/02 10:26:56;;;;;;;1.27;0.60;;;17.40;99.90;;;;;;5071487;28;20233;-66
2022/04/02 10:29:36;;;;;;;0.97;0.50;;;17.50;99.90;;;;;;5071851;28;20245;-67
2022/04/02 10:35:46;;;;;;;0.67;0.67;;;17.50;99.90;;;;;;5058094;28;20272;-66
2022/04/02 10:38:34;;;;;;;0.80;0.60;;;17.50;99.90;;;;;;5070842;28;20184;-67
2022/04/02 10:41:11;;;;;;;6.20;0.50;;;17.40;99.90;;;;;;5072080;28;20251;-67
2022/04/02 10:43:52;;;;;;;0.87;0.57;;;17.40;99.90;;;;;;5072132;28;20225;-67
2022/04/02 10:46:24;;;;;;;1.03;0.60;;;17.40;99.90;;;;;;5071228;28;20176;-67
2022/04/02 10:49:07;;;;;;;0.60;0.50;;;17.30;99.90;;;;;;5075520;28;20288;-68
2022/04/02 10:51:41;;;;;;;2.83;1.07;;;17.20;99.90;;;;;;5072793;28;20187;-66
2022/04/02 10:54:12;;;;;;;1.37;0.80;;;17.00;99.90;;;;;;5075776;28;20213;-67
2022/04/02 10:56:47;;;;;;;2.47;0.70;;;16.90;99.90;;;;;;5075920;28;20176;-67
2022/04/02 10:59:18;;;;;;;3.30;0.90;;;16.80;99.90;;;;;;5075719;28;20204;-67
2022/04/02 11:01:53;;;;;;;1.40;0.80;;;16.60;99.90;;;;;;5075330;28;20214;-67
2022/04/02 11:04:27;;;;;;;1.47;0.83;;;16.60;99.90;;;;;;5075585;28;20219;-68
2022/04/02 11:06:54;;;;;;;0.77;0.70;;;16.50;99.90;;;;;;5075051;28;20183;-67
2022/04/02 11:09:32;;;;;;;1.23;0.80;;;16.40;99.90;;;;;;5073524;28;20912;-66
2022/04/02 11:12:06;;;;;;;2.07;0.93;;;16.40;99.90;;;;;;5075307;28;20184;-66
2022/04/02 11:14:45;;;;;;;1.20;0.80;;;16.30;99.90;;;;;;5074463;28;20226;-67
2022/04/02 11:17:32;;;;;;;2.67;1.27;;;16.20;99.90;;;;;;5074019;28;20183;-66
2022/04/02 11:20:08;;;;;;;1.10;0.70;;;16.20;99.90;;;;;;5072533;28;20172;-67
2022/04/02 11:23:02;;;;;;;5.17;1.10;;;16.20;99.90;;;;;;5074848;28;20183;-67
2022/04/02 11:25:35;;;;;;;2.83;0.60;;;16.10;99.90;;;;;;5072859;28;20180;-67
2022/04/02 11:28:14;;;;;;;1.47;0.83;;;16.10;99.90;;;;;;5073894;28;20542;-67
2022/04/02 11:30:44;;;;;;;1.27;0.80;;;16.10;99.90;;;;;;5075464;28;20172;-67
2022/04/02 11:33:19;;;;;;;1.07;0.80;;;16.00;99.90;;;;;;5074869;28;20638;-67
2022/04/02 11:35:51;;;;;;;2.03;0.87;;;15.90;99.90;;;;;;5075142;28;20231;-67
2022/04/02 11:38:25;;;;;;;2.10;0.97;;;15.80;99.90;;;;;;5075078;28;20573;-67
2022/04/02 11:41:01;;;;;;;1.90;1.00;;;15.70;99.90;;;;;;5075086;28;20216;-67
2022/04/02 11:43:43;;;;;;;2.40;0.80;;;15.70;99.90;;;;;;5055477;28;20169;-67
2022/04/02 11:46:13;;;;;;;1.77;0.97;;;15.70;99.90;;;;;;5053700;28;20535;-67
2022/04/02 11:48:59;;;;;;;2.13;1.10;;;15.60;99.90;;;;;;5053706;28;20173;-67
2022/04/02 11:51:29;;;;;;;3.67;0.80;;;15.50;99.90;;;;;;5059432;28;20775;-67
2022/04/02 11:54:10;;;;;;;3.00;0.80;;;15.50;99.90;;;;;;5074858;28;20630;-67
2022/04/02 11:56:43;;;;;;;1.10;0.70;;;15.40;99.90;;;;;;5074719;28;20180;-68
2022/04/02 11:59:15;;;;;;;1.03;0.70;;;15.40;99.90;;;;;;5074597;28;20172;-66
2022/04/02 12:01:45;;;;;;;0.97;0.77;;;15.40;99.90;;;;;;5061548;28;20211;-66
2022/04/02 12:04:17;;;;;;;2.23;0.90;;;15.30;99.90;;;;;;5074480;28;20286;-66
2022/04/02 12:06:50;;;;;;;1.67;1.00;;;15.40;99.90;;;;;;5073129;28;20592;-67
2022/04/02 12:09:21;;;;;;;1.20;0.90;;;15.30;99.90;;;;;;5074514;28;20184;-67
2022/04/02 12:11:53;;;;;;;1.17;0.70;;;15.20;99.90;;;;;;5074231;28;20187;-68
2022/04/02 12:14:36;;;;;;;3.77;1.50;;;15.20;99.90;;;;;;5074247;28;20219;-67
2022/04/02 12:17:12;;;;;;;0.83;0.73;;;15.10;99.90;;;;;;5074136;28;20190;-67
2022/04/02 12:19:53;;;;;;;2.67;0.70;;;15.10;99.90;;;;;;5072456;28;20553;-67
2022/04/02 12:22:27;;;;;;;1.13;0.60;;;15.00;99.90;;;;;;5070718;28;20192;-65
2022/04/02 12:24:57;;;;;;;1.23;0.70;;;15.10;99.90;;;;;;5070964;28;20207;-66
2022/04/02 12:27:27;;;;;;;0.80;0.60;;;15.00;99.90;;;;;;5071511;28;20184;-66
2022/04/02 12:29:57;;;;;;;1.17;0.80;;;15.00;99.90;;;;;;5074363;28;20531;-67
2022/04/02 12:32:35;;;;;;;2.23;0.80;;;15.00;99.90;;;;;;5073307;28;20645;-67
2022/04/02 12:35:05;;;;;;;1.10;0.70;;;14.90;99.90;;;;;;5064090;28;20213;-68
2022/04/02 12:37:40;;;;;;;3.53;0.90;;;14.90;99.90;;;;;;5074116;28;20168;-67
2022/04/02 12:40:22;;;;;;;2.30;0.70;;;14.80;99.90;;;;;;5074110;28;20195;-67
2022/04/02 12:42:52;;;;;;;1.33;0.60;;;14.80;99.90;;;;;;5073578;28;20657;-67
2022/04/02 12:45:21;;;;;;;1.17;0.77;;;14.80;99.90;;;;;;5073563;28;20180;-67
2022/04/02 12:48:04;;;;;;;1.03;0.90;;;14.80;99.90;;;;;;5073659;28;20187;-66
2022/04/02 12:50:50;;;;;;;2.03;0.70;;;14.80;99.90;;;;;;5073213;28;20190;-66
2022/04/02 12:53:36;;;;;;;3.50;1.00;;;14.80;99.90;;;;;;5073552;28;20183;-67
2022/04/02 12:56:09;;;;;;;0.60;0.60;;;14.80;99.90;;;;;;5073851;28;20167;-67
2022/04/02 12:58:40;;;;;;;4.10;0.80;;;14.80;99.90;;;;;;5076614;28;20179;-67
2022/04/02 13:01:14;;;;;;;1.40;0.67;;;14.70;99.90;;;;;;5079709;28;20615;-68
2022/04/02 13:03:54;;;;;;;1.33;0.77;;;14.70;99.90;;;;;;5080829;28;20179;-68
2022/04/02 13:06:24;;;;;;;1.03;0.60;;;14.70;99.90;;;;;;5078788;28;20175;-68
2022/04/02 13:08:56;;;;;;;0.73;0.73;;;14.70;99.90;;;;;;5078980;28;20182;-68
2022/04/02 13:11:35;;;;;;;0.90;0.70;;;14.60;99.90;;;;;;5079671;28;20195;-67
2022/04/02 13:14:12;;;;;;;0.70;0.60;;;14.70;99.90;;;;;;5077402;28;20211;-67
2022/04/02 13:16:40;;;;;;;1.90;0.80;;;14.60;99.90;;;;;;5072553;28;20175;-67
2022/04/02 13:22:25;;;;;;;1.30;0.80;;;14.80;99.90;;;;;;5072958;28;20269;-67